Time;durP1;ratioP1;P1;durP2;ratioP2;P2;SDS_P1;SDS_P2;PMS_P1;PMS_P2;Temp;Humidity;BMP_temperature;BMP_pressure;BME280_temperature;BME280_humidity;BME280_pressure;Samples;Min_cycle;Max_cycle;Signal;HPM_P1;HPM_P2
2022/06/03 00:02:56;;;;;;;38.20;36.40;;;11.80;97.30;;;;;;5126126;28;20428;-80
2022/06/03 00:05:49;;;;;;;40.00;38.30;;;11.80;97.40;;;;;;5126154;28;20458;-80
2022/06/03 00:08:45;;;;;;;41.47;39.77;;;11.70;97.30;;;;;;5126725;28;20474;-80
2022/06/03 00:11:45;;;;;;;37.20;35.20;;;11.70;97.40;;;;;;5126187;28;20459;-80
2022/06/03 00:14:48;;;;;;;38.13;36.40;;;11.60;97.40;;;;;;5101336;27;20479;-81
2022/06/03 00:17:41;;;;;;;39.63;37.90;;;11.60;97.50;;;;;;5126616;28;20460;-80
2022/06/03 00:20:22;;;;;;;35.90;34.30;;;11.50;97.50;;;;;;5128032;28;20526;-81
2022/06/03 00:23:23;;;;;;;37.40;35.60;;;11.50;97.60;;;;;;5128867;28;20434;-80
2022/06/03 00:26:14;;;;;;;37.43;35.67;;;11.50;97.60;;;;;;5127243;28;20523;-81
2022/06/03 00:29:01;;;;;;;35.63;34.00;;;11.40;97.90;;;;;;5131695;28;20439;-81
2022/06/03 00:31:50;;;;;;;36.73;34.73;;;11.40;97.70;;;;;;5130772;28;20443;-79
2022/06/03 00:34:44;;;;;;;38.33;36.57;;;11.30;97.70;;;;;;5134310;28;20504;-80
2022/06/03 00:37:26;;;;;;;37.70;35.97;;;11.30;97.80;;;;;;5138177;28;20443;-80
2022/06/03 00:40:07;;;;;;;37.17;35.40;;;11.30;97.90;;;;;;5138341;28;20428;-80
2022/06/03 00:43:10;;;;;;;38.27;36.47;;;11.20;98.00;;;;;;5136583;28;20846;-79
2022/06/03 00:45:50;;;;;;;44.70;42.50;;;11.20;98.00;;;;;;5130450;28;20431;-79
2022/06/03 00:48:38;;;;;;;39.90;38.10;;;11.10;98.00;;;;;;5127475;28;20462;-79
2022/06/03 00:51:35;;;;;;;43.47;41.40;;;11.10;98.00;;;;;;5126434;28;20797;-80
2022/06/03 00:54:45;;;;;;;47.60;45.60;;;11.10;98.10;;;;;;5129337;28;20822;-81
2022/06/03 00:57:55;;;;;;;49.17;47.00;;;11.00;98.10;;;;;;5128077;28;20443;-80
2022/06/03 01:00:26;;;;;;;49.53;47.33;;;11.00;98.20;;;;;;5127926;28;20888;-81
2022/06/03 01:03:25;;;;;;;48.50;46.43;;;10.90;98.10;;;;;;5124485;28;20432;-80
2022/06/03 01:06:15;;;;;;;49.97;47.80;;;10.90;98.20;;;;;;5123745;28;20476;-80
2022/06/03 01:08:59;;;;;;;48.50;46.40;;;10.90;98.20;;;;;;5128395;28;20483;-80
2022/06/03 01:11:50;;;;;;;45.50;43.40;;;10.80;98.20;;;;;;5127931;28;20438;-81
2022/06/03 01:14:30;;;;;;;45.27;43.27;;;10.80;98.30;;;;;;5126089;28;20483;-79
2022/06/03 01:17:07;;;;;;;50.17;48.07;;;10.80;98.30;;;;;;5126551;28;21020;-80
2022/06/03 01:20:03;;;;;;;43.80;41.80;;;10.70;98.30;;;;;;5126940;28;20465;-82
2022/06/03 01:23:22;;;;;;;40.73;38.83;;;10.70;98.30;;;;;;5125956;28;20459;-81
2022/06/03 01:26:17;;;;;;;45.70;43.70;;;10.70;98.40;;;;;;5125760;28;20451;-79
2022/06/03 01:29:22;;;;;;;40.20;38.40;;;10.60;98.40;;;;;;5126831;28;20854;-81
2022/06/03 01:32:36;;;;;;;46.03;44.13;;;10.60;98.40;;;;;;5125537;28;20443;-80
2022/06/03 01:35:24;;;;;;;49.63;47.53;;;10.50;98.40;;;;;;5124663;28;20976;-81
2022/06/03 01:37:56;;;;;;;50.03;47.83;;;10.50;98.50;;;;;;5125099;28;20435;-80
2022/06/03 01:40:54;;;;;;;54.73;52.40;;;10.50;98.50;;;;;;5126938;28;20452;-80
2022/06/03 01:43:51;;;;;;;58.87;56.47;;;10.50;98.60;;;;;;5126152;28;20471;-80
2022/06/03 01:46:26;;;;;;;57.83;55.50;;;10.40;98.60;;;;;;5108549;28;20447;-81
2022/06/03 01:49:40;;;;;;;46.83;44.80;;;10.40;98.70;;;;;;5125175;28;20842;-80
2022/06/03 01:52:36;;;;;;;56.10;53.60;;;10.40;98.70;;;;;;5127501;28;20439;-80
2022/06/03 01:55:47;;;;;;;74.17;71.27;;;10.40;98.80;;;;;;5126945;28;20475;-80
2022/06/03 01:58:34;;;;;;;50.83;48.47;;;10.30;98.80;;;;;;5130293;28;20439;-81
2022/06/03 02:01:22;;;;;;;44.07;42.17;;;10.30;98.90;;;;;;5137701;28;20439;-78
2022/06/03 02:04:26;;;;;;;39.93;38.13;;;10.30;98.90;;;;;;5138248;28;20471;-80
2022/06/03 02:07:31;;;;;;;39.20;37.37;;;10.20;98.90;;;;;;5139116;28;20430;-80
2022/06/03 02:10:33;;;;;;;38.07;36.27;;;10.20;98.90;;;;;;5138477;28;20434;-79
2022/06/03 02:13:28;;;;;;;32.70;30.87;;;10.10;98.90;;;;;;5137731;28;20444;-81
2022/06/03 02:16:27;;;;;;;36.40;34.43;;;10.10;99.00;;;;;;5137919;28;20431;-81
2022/06/03 02:19:34;;;;;;;35.73;34.03;;;10.00;99.10;;;;;;5118002;28;20478;-79
2022/06/03 02:22:54;;;;;;;33.90;32.03;;;10.00;99.10;;;;;;5118474;28;20439;-81
2022/06/03 02:25:41;;;;;;;35.53;33.77;;;10.00;99.20;;;;;;5137986;28;20485;-80
2022/06/03 02:28:45;;;;;;;38.20;36.30;;;9.90;99.70;;;;;;5137834;28;20416;-80
2022/06/03 02:31:31;;;;;;;38.63;36.67;;;9.90;99.70;;;;;;5108169;28;20477;-81
2022/06/03 02:34:33;;;;;;;41.63;39.63;;;9.90;99.80;;;;;;5139041;28;20474;-80
2022/06/03 02:37:38;;;;;;;40.53;38.37;;;9.90;99.80;;;;;;5137552;28;20461;-80
2022/06/03 02:41:03;;;;;;;45.03;42.83;;;9.90;99.80;;;;;;5138129;28;20464;-80
2022/06/03 02:44:11;;;;;;;39.60;37.60;;;9.80;99.80;;;;;;5055382;28;20488;-80
2022/06/03 02:47:07;;;;;;;36.93;35.03;;;9.80;99.80;;;;;;5116228;28;20515;-80
2022/06/03 02:50:22;;;;;;;35.40;33.53;;;9.70;99.80;;;;;;5133603;28;20439;-81
2022/06/03 02:53:31;;;;;;;37.20;35.30;;;9.70;99.80;;;;;;5113007;28;20526;-80
2022/06/03 02:56:26;;;;;;;36.27;34.37;;;9.70;99.80;;;;;;5117833;28;20476;-80
2022/06/03 02:59:25;;;;;;;34.93;33.23;;;9.60;99.80;;;;;;5132402;28;20808;-80
2022/06/03 03:02:13;;;;;;;35.80;33.80;;;9.60;99.80;;;;;;5132110;28;20846;-80
2022/06/03 03:04:56;;;;;;;38.37;36.27;;;9.60;99.80;;;;;;5131194;28;20463;-81
2022/06/03 03:07:47;;;;;;;32.00;30.17;;;9.60;99.90;;;;;;5133082;28;20431;-80
2022/06/03 03:11:03;;;;;;;38.23;36.23;;;9.60;99.90;;;;;;5131973;28;20443;-80
2022/06/03 03:14:20;;;;;;;35.87;33.80;;;9.50;99.90;;;;;;5052649;28;20470;-80
2022/06/03 03:17:16;;;;;;;39.63;37.33;;;9.50;99.90;;;;;;5052438;28;20884;-81
2022/06/03 03:20:19;;;;;;;39.37;37.20;;;9.50;99.90;;;;;;5029028;28;20458;-80
2022/06/03 03:23:21;;;;;;;34.63;32.83;;;9.40;99.90;;;;;;5130093;28;20473;-81
2022/06/03 03:26:06;;;;;;;40.33;38.23;;;9.40;99.90;;;;;;5107006;28;20443;-80
2022/06/03 03:29:32;;;;;;;41.27;38.87;;;9.40;99.90;;;;;;5130421;28;20432;-80
2022/06/03 03:32:15;;;;;;;47.27;44.23;;;9.40;99.90;;;;;;5105254;28;20474;-81
2022/06/03 03:35:05;;;;;;;47.50;44.63;;;9.40;99.90;;;;;;5140199;28;20471;-81
2022/06/03 03:38:00;;;;;;;48.90;46.20;;;9.30;99.90;;;;;;5139535;28;20422;-80
2022/06/03 03:41:04;;;;;;;63.63;59.23;;;9.40;99.90;;;;;;5134798;28;20412;-81
2022/06/03 03:44:00;;;;;;;52.00;49.23;;;9.30;99.90;;;;;;5130212;28;20451;-81
2022/06/03 03:47:19;;;;;;;57.73;54.90;;;9.30;99.90;;;;;;5130552;28;20466;-80
2022/06/03 03:50:23;;;;;;;56.17;53.67;;;9.30;99.90;;;;;;5131324;28;20495;-81
2022/06/03 03:53:31;;;;;;;55.47;52.77;;;9.30;99.90;;;;;;5137353;28;20442;-80
2022/06/03 03:56:28;;;;;;;56.03;53.63;;;9.30;99.90;;;;;;5136932;28;20474;-81
2022/06/03 03:59:32;;;;;;;63.40;59.60;;;9.30;99.90;;;;;;5133726;28;20440;-80
2022/06/03 04:02:44;;;;;;;57.77;55.03;;;9.30;99.90;;;;;;5131520;28;20446;-81
2022/06/03 04:05:45;;;;;;;49.13;46.73;;;9.30;99.90;;;;;;5088900;28;20980;-81
2022/06/03 04:09:02;;;;;;;48.27;45.90;;;9.30;99.90;;;;;;5130866;28;20447;-81
2022/06/03 04:12:15;;;;;;;43.83;41.30;;;9.30;99.90;;;;;;5131142;27;20447;-81
2022/06/03 04:15:02;;;;;;;51.40;48.73;;;9.30;99.90;;;;;;5047295;28;20479;-80
2022/06/03 04:18:09;;;;;;;46.40;43.70;;;9.30;99.90;;;;;;5129288;28;20431;-80
2022/06/03 04:21:10;;;;;;;49.00;46.10;;;9.40;99.90;;;;;;5131059;28;20440;-80
2022/06/03 04:24:33;;;;;;;45.33;42.57;;;9.40;99.90;;;;;;5127378;28;20536;-80
2022/06/03 04:27:31;;;;;;;47.50;44.60;;;9.40;99.90;;;;;;5133661;28;20439;-80
2022/06/03 04:30:39;;;;;;;47.23;44.20;;;9.50;99.90;;;;;;5130958;28;20416;-81
2022/06/03 04:33:44;;;;;;;43.77;41.13;;;9.60;99.90;;;;;;5130496;28;20447;-81
2022/06/03 04:36:45;;;;;;;49.37;46.57;;;9.60;99.90;;;;;;5131139;28;20496;-80
2022/06/03 04:39:46;;;;;;;49.50;46.50;;;9.70;99.90;;;;;;5129948;28;20461;-81
2022/06/03 04:42:53;;;;;;;52.23;49.23;;;9.70;99.90;;;;;;5110918;28;20460;-81
2022/06/03 04:45:52;;;;;;;53.07;49.90;;;9.80;99.90;;;;;;5126789;28;20462;-80
2022/06/03 04:48:56;;;;;;;55.80;52.60;;;9.80;99.90;;;;;;5127036;28;20469;-80
2022/06/03 04:51:59;;;;;;;58.30;55.00;;;9.90;99.90;;;;;;5076506;28;20441;-79
2022/06/03 04:54:59;;;;;;;56.10;52.90;;;10.00;99.90;;;;;;5114384;28;20529;-80
2022/06/03 04:58:01;;;;;;;57.63;54.57;;;10.00;99.90;;;;;;5128056;28;20542;-81
2022/06/03 05:01:13;;;;;;;52.37;49.40;;;10.10;99.90;;;;;;5127475;28;20440;-81
2022/06/03 05:04:31;;;;;;;55.60;52.60;;;10.20;99.90;;;;;;5127481;28;20479;-80
2022/06/03 05:07:33;;;;;;;56.63;53.20;;;10.20;99.90;;;;;;5127668;28;20448;-79
2022/06/03 05:10:41;;;;;;;53.07;50.17;;;10.30;99.90;;;;;;5120517;28;20518;-79
2022/06/03 05:13:51;;;;;;;50.53;47.50;;;10.40;99.90;;;;;;5112702;28;20968;-79
2022/06/03 05:17:07;;;;;;;45.90;43.20;;;10.40;99.90;;;;;;5125798;28;20547;-80
2022/06/03 05:20:10;;;;;;;47.93;45.17;;;10.50;99.90;;;;;;5126997;28;20459;-80
2022/06/03 05:22:52;;;;;;;46.93;44.33;;;10.60;99.90;;;;;;5115590;28;20451;-80
2022/06/03 05:25:39;;;;;;;48.73;46.00;;;10.60;99.90;;;;;;5105649;28;20465;-79
2022/06/03 05:28:53;;;;;;;50.60;47.73;;;10.70;99.90;;;;;;5124734;28;20472;-79
2022/06/03 05:31:54;;;;;;;47.20;44.50;;;10.90;99.90;;;;;;5120426;28;20448;-80
2022/06/03 05:34:55;;;;;;;47.40;44.60;;;11.00;99.90;;;;;;5080723;28;20546;-78
2022/06/03 05:37:54;;;;;;;53.87;50.73;;;11.20;99.90;;;;;;5105416;28;20458;-81
2022/06/03 05:40:38;;;;;;;53.23;49.80;;;11.40;99.90;;;;;;5127365;28;20462;-80
2022/06/03 05:43:22;;;;;;;52.93;50.13;;;11.60;99.90;;;;;;5105363;28;20459;-79
2022/06/03 05:46:06;;;;;;;54.57;51.87;;;11.90;99.90;;;;;;5113786;28;20915;-78
2022/06/03 05:48:48;;;;;;;53.30;50.90;;;12.20;99.90;;;;;;5100518;28;20433;-81
2022/06/03 05:51:52;;;;;;;55.80;53.10;;;12.50;99.90;;;;;;5119262;28;20509;-80
2022/06/03 05:54:33;;;;;;;54.33;51.67;;;12.80;99.90;;;;;;5118800;28;20458;-79
2022/06/03 05:57:15;;;;;;;53.57;51.17;;;13.20;99.90;;;;;;5113700;28;20446;-80
2022/06/03 06:00:21;;;;;;;53.27;50.90;;;13.60;99.90;;;;;;5116212;28;20432;-79
2022/06/03 06:03:01;;;;;;;55.10;52.60;;;13.90;99.90;;;;;;5115113;28;20535;-79
2022/06/03 06:05:40;;;;;;;52.17;49.80;;;14.30;99.90;;;;;;5114969;28;20469;-79
2022/06/03 06:08:19;;;;;;;53.23;50.83;;;14.70;99.90;;;;;;5114855;28;20469;-80
2022/06/03 06:10:58;;;;;;;48.70;46.60;;;15.00;99.90;;;;;;5117173;28;20807;-80
2022/06/03 06:13:53;;;;;;;47.70;45.40;;;15.30;99.90;;;;;;5117914;28;20497;-80
2022/06/03 06:16:23;;;;;;;46.80;44.70;;;15.70;99.90;;;;;;5121782;28;20455;-80
2022/06/03 06:18:58;;;;;;;51.50;49.10;;;16.00;99.90;;;;;;5124816;28;20439;-80
2022/06/03 06:21:49;;;;;;;44.47;42.27;;;16.30;99.90;;;;;;5122515;28;20492;-81
2022/06/03 06:24:25;;;;;;;43.07;41.07;;;16.50;99.90;;;;;;5110720;28;20466;-80
2022/06/03 06:27:44;;;;;;;44.57;42.40;;;16.80;99.90;;;;;;5120483;28;20500;-79
2022/06/03 06:30:21;;;;;;;46.17;44.17;;;17.10;99.90;;;;;;5120756;28;20418;-79
2022/06/03 06:33:12;;;;;;;43.20;41.20;;;17.40;99.90;;;;;;5120932;28;20413;-81
2022/06/03 06:36:00;;;;;;;44.73;42.70;;;17.70;99.90;;;;;;5117957;28;20470;-80
2022/06/03 06:38:37;;;;;;;44.23;42.33;;;17.90;99.90;;;;;;5121299;28;20480;-81
2022/06/03 06:41:21;;;;;;;44.97;42.87;;;18.10;99.90;;;;;;5121993;28;20891;-79
2022/06/03 06:43:56;;;;;;;49.20;46.90;;;18.20;99.90;;;;;;5121355;28;20424;-79
2022/06/03 06:46:35;;;;;;;48.90;46.70;;;18.40;99.90;;;;;;5120320;28;20435;-79
2022/06/03 06:49:18;;;;;;;53.50;51.13;;;18.60;99.90;;;;;;5121743;28;20411;-80
2022/06/03 06:52:00;;;;;;;52.70;50.63;;;18.70;99.90;;;;;;5119454;28;20861;-80
2022/06/03 06:54:37;;;;;;;58.80;56.40;;;18.90;99.90;;;;;;5120776;28;20475;-81
2022/06/03 06:57:11;;;;;;;58.37;56.07;;;19.10;99.90;;;;;;5119078;28;20555;-81
2022/06/03 06:59:46;;;;;;;54.67;52.33;;;19.20;99.90;;;;;;5119877;28;20500;-79
2022/06/03 07:02:18;;;;;;;35.57;33.83;;;19.40;99.90;;;;;;5119459;28;20442;-81
2022/06/03 07:04:54;;;;;;;30.83;29.37;;;19.60;99.90;;;;;;5119451;28;20900;-80
2022/06/03 07:07:30;;;;;;;26.00;24.60;;;19.80;99.90;;;;;;5120768;28;20443;-80
2022/06/03 07:10:05;;;;;;;23.47;21.97;;;20.00;99.90;;;;;;5118889;28;20426;-80
2022/06/03 07:12:39;;;;;;;20.23;19.03;;;20.10;99.90;;;;;;5119831;28;20435;-80
2022/06/03 07:15:41;;;;;;;18.20;17.00;;;20.10;99.90;;;;;;5121250;28;20452;-80
2022/06/03 07:21:11;;;;;;;18.10;16.90;;;20.30;99.60;;;;;;5117643;28;20447;-78
2022/06/03 07:23:47;;;;;;;17.00;15.80;;;20.50;99.50;;;;;;5118560;28;20994;-80
2022/06/03 07:26:22;;;;;;;15.17;14.07;;;20.60;99.20;;;;;;5115922;28;20474;-78
2022/06/03 07:28:57;;;;;;;14.40;13.30;;;20.70;99.00;;;;;;5119275;28;20415;-79
2022/06/03 07:31:34;;;;;;;12.60;11.70;;;20.80;98.60;;;;;;5116711;28;21007;-78
2022/06/03 07:34:06;;;;;;;12.50;11.60;;;20.90;98.30;;;;;;5121647;28;20546;-80
2022/06/03 07:36:41;;;;;;;12.43;11.60;;;20.90;98.00;;;;;;5119280;28;20554;-80
2022/06/03 07:39:35;;;;;;;13.60;12.53;;;21.00;97.70;;;;;;5121502;28;20858;-79
2022/06/03 07:42:10;;;;;;;14.63;13.53;;;21.00;97.20;;;;;;5118596;28;20906;-78
2022/06/03 07:44:45;;;;;;;11.50;10.60;;;21.00;97.40;;;;;;5119606;28;20877;-78
2022/06/03 07:47:18;;;;;;;12.50;11.60;;;21.10;97.20;;;;;;5119288;28;20530;-81
2022/06/03 07:49:55;;;;;;;13.30;12.10;;;21.10;97.10;;;;;;5120632;28;20434;-78
2022/06/03 07:52:33;;;;;;;12.67;11.73;;;21.20;96.80;;;;;;5118090;28;21045;-81
2022/06/03 07:55:09;;;;;;;12.77;11.77;;;21.30;96.60;;;;;;5118486;28;20478;-79
2022/06/03 07:57:37;;;;;;;12.30;11.40;;;21.30;96.50;;;;;;5120724;28;20455;-79
2022/06/03 08:00:16;;;;;;;12.43;11.53;;;21.40;96.30;;;;;;5119172;28;20846;-79
2022/06/03 08:02:45;;;;;;;12.07;11.03;;;21.40;96.10;;;;;;5119049;28;20506;-79
2022/06/03 08:05:18;;;;;;;12.27;11.27;;;21.40;96.10;;;;;;5118164;28;20491;-80
2022/06/03 08:10:58;;;;;;;11.00;10.13;;;21.50;95.80;;;;;;5116513;28;20450;-78
2022/06/03 08:13:28;;;;;;;11.97;10.80;;;21.60;95.80;;;;;;5116196;28;20471;-80
2022/06/03 08:16:00;;;;;;;12.83;11.83;;;21.60;95.80;;;;;;5118708;28;20936;-80
2022/06/03 08:18:33;;;;;;;11.90;11.00;;;21.80;95.70;;;;;;5118828;28;20896;-80
2022/06/03 08:21:05;;;;;;;11.67;10.87;;;21.80;95.50;;;;;;5121219;28;20439;-80
2022/06/03 08:23:35;;;;;;;14.10;13.20;;;21.80;95.30;;;;;;5121102;28;20493;-79
2022/06/03 08:26:08;;;;;;;13.00;11.90;;;21.90;95.20;;;;;;5120701;28;20443;-80
2022/06/03 08:28:40;;;;;;;12.40;11.40;;;21.90;94.90;;;;;;5119287;28;20488;-80
2022/06/03 08:31:09;;;;;;;11.83;10.93;;;21.90;94.70;;;;;;5118663;28;20439;-80
2022/06/03 08:33:42;;;;;;;11.60;10.80;;;22.00;94.70;;;;;;5120740;28;20473;-80
2022/06/03 08:36:15;;;;;;;12.47;11.47;;;22.00;94.70;;;;;;5120264;28;20443;-79
2022/06/03 08:38:48;;;;;;;12.07;11.13;;;22.10;94.60;;;;;;5120280;28;20531;-80
2022/06/03 08:41:33;;;;;;;13.37;12.47;;;22.20;94.40;;;;;;5116686;28;20449;-81
2022/06/03 08:44:14;;;;;;;12.07;10.80;;;22.20;94.30;;;;;;5117044;28;20485;-82
2022/06/03 08:46:50;;;;;;;12.80;11.77;;;22.30;94.40;;;;;;5120331;28;20439;-80
2022/06/03 08:49:23;;;;;;;13.20;12.03;;;22.40;94.30;;;;;;5120668;28;20927;-79
2022/06/03 08:51:56;;;;;;;12.40;11.60;;;22.50;94.20;;;;;;5121138;28;20432;-81
2022/06/03 08:54:30;;;;;;;12.60;11.50;;;22.60;94.10;;;;;;5119645;28;20897;-80
2022/06/03 08:57:05;;;;;;;11.80;10.90;;;22.70;94.00;;;;;;5119553;28;20483;-81
2022/06/03 08:59:40;;;;;;;10.27;9.50;;;22.80;94.00;;;;;;5120395;28;20531;-79
2022/06/03 09:02:12;;;;;;;13.17;11.80;;;22.80;93.80;;;;;;5117865;28;20819;-80
2022/06/03 09:04:48;;;;;;;12.30;11.40;;;22.90;93.70;;;;;;5118953;28;20459;-81
2022/06/03 09:07:25;;;;;;;13.33;12.30;;;22.90;93.60;;;;;;5120189;28;20491;-82
2022/06/03 09:09:57;;;;;;;12.40;11.37;;;23.00;93.60;;;;;;5126930;28;20451;-81
2022/06/03 09:12:41;;;;;;;12.60;11.53;;;23.00;93.50;;;;;;5123690;28;20491;-82
2022/06/03 09:15:13;;;;;;;12.70;11.67;;;23.10;93.40;;;;;;5123945;28;20508;-80
2022/06/03 09:17:48;;;;;;;12.33;11.53;;;23.20;93.20;;;;;;5119234;28;20802;-81
2022/06/03 09:20:24;;;;;;;11.50;10.77;;;23.30;93.20;;;;;;5123203;28;20430;-81
2022/06/03 09:22:59;;;;;;;12.70;11.80;;;23.30;93.10;;;;;;5121555;28;20431;-82
2022/06/03 09:25:31;;;;;;;12.80;11.90;;;23.40;92.90;;;;;;5122890;28;20450;-83
2022/06/03 09:28:03;;;;;;;13.60;12.60;;;23.40;92.80;;;;;;5120559;28;20435;-81
2022/06/03 09:30:37;;;;;;;12.93;11.73;;;23.50;92.70;;;;;;5119921;28;20436;-81
2022/06/03 09:33:09;;;;;;;13.07;12.20;;;23.50;92.60;;;;;;5116358;28;20453;-81
2022/06/03 09:35:43;;;;;;;12.10;11.30;;;23.60;92.50;;;;;;5117832;28;20443;-80
2022/06/03 09:38:13;;;;;;;12.20;11.33;;;23.50;92.40;;;;;;5118592;28;20455;-83
2022/06/03 09:40:44;;;;;;;13.03;12.00;;;23.50;92.50;;;;;;5118742;28;20438;-81
2022/06/03 09:43:20;;;;;;;11.40;10.50;;;23.50;92.40;;;;;;5117509;28;20968;-81
2022/06/03 09:45:52;;;;;;;12.47;11.57;;;23.60;92.30;;;;;;5116167;28;20431;-80
2022/06/03 09:48:25;;;;;;;12.37;11.57;;;23.60;92.40;;;;;;5118940;28;20781;-79
2022/06/03 09:50:57;;;;;;;13.20;12.17;;;23.70;92.10;;;;;;5123725;28;20447;-81
2022/06/03 09:53:30;;;;;;;12.63;11.77;;;23.70;91.80;;;;;;5122467;28;20476;-80
2022/06/03 09:56:03;;;;;;;12.70;11.80;;;23.50;91.50;;;;;;5122913;27;20893;-79
2022/06/03 09:58:34;;;;;;;12.10;11.30;;;23.30;91.40;;;;;;5121285;28;20908;-80
2022/06/03 10:01:09;;;;;;;13.07;12.17;;;23.20;91.40;;;;;;5125290;27;20908;-80
2022/06/03 10:03:37;;;;;;;12.53;11.43;;;23.30;91.40;;;;;;5122251;27;20509;-80
2022/06/03 10:06:42;;;;;;;12.63;11.73;;;23.30;91.40;;;;;;5123648;27;20443;-80
2022/06/03 10:14:28;;;;;;;12.40;11.60;;;23.40;91.10;;;;;;5121426;28;20470;-80
2022/06/03 10:16:56;;;;;;;12.23;11.37;;;23.40;90.90;;;;;;5122211;27;20865;-80
2022/06/03 10:19:24;;;;;;;13.10;12.30;;;23.40;90.90;;;;;;5123000;27;20438;-79
2022/06/03 10:21:56;;;;;;;11.93;11.23;;;23.40;90.90;;;;;;5121923;27;20948;-81
2022/06/03 10:24:31;;;;;;;12.20;11.30;;;23.50;90.90;;;;;;5123452;27;20450;-82
2022/06/03 10:27:01;;;;;;;12.53;11.73;;;23.50;90.70;;;;;;5125136;27;20807;-81
2022/06/03 10:29:30;;;;;;;13.37;12.47;;;23.40;90.60;;;;;;5127518;27;20434;-81
2022/06/03 10:32:01;;;;;;;12.77;11.97;;;23.40;90.50;;;;;;5126678;27;20462;-80
2022/06/03 10:34:35;;;;;;;10.93;10.20;;;23.50;90.40;;;;;;5129835;27;20474;-82
2022/06/03 10:37:08;;;;;;;12.50;11.60;;;23.50;90.30;;;;;;5127291;27;20937;-82
2022/06/03 10:39:38;;;;;;;11.77;11.00;;;23.50;90.20;;;;;;5126003;28;20984;-83
2022/06/03 10:42:07;;;;;;;11.80;11.00;;;23.60;90.20;;;;;;5122460;28;20467;-81
2022/06/03 10:44:37;;;;;;;11.07;10.37;;;23.60;90.20;;;;;;5123611;28;20469;-81
2022/06/03 10:47:07;;;;;;;12.37;11.37;;;23.60;90.10;;;;;;5124326;27;20451;-81
2022/06/03 10:49:38;;;;;;;13.17;12.33;;;23.70;90.00;;;;;;5126711;28;20511;-82
2022/06/03 11:03:27;;;;;;;11.87;11.07;;;23.70;89.00;;;;;;5124143;27;20450;-81
2022/06/03 11:05:56;;;;;;;12.27;11.47;;;23.70;89.00;;;;;;5119298;28;20439;-81
2022/06/03 11:08:26;;;;;;;12.87;12.07;;;23.70;89.10;;;;;;5122702;28;20500;-80
2022/06/03 11:10:57;;;;;;;12.87;12.07;;;23.70;88.60;;;;;;5124962;28;20633;-81
2022/06/03 11:13:28;;;;;;;11.20;10.23;;;23.80;88.40;;;;;;5121451;28;20475;-82
2022/06/03 11:15:58;;;;;;;11.77;10.97;;;23.80;88.30;;;;;;5121768;28;20426;-80
2022/06/03 11:18:29;;;;;;;12.60;11.80;;;23.70;87.70;;;;;;5118151;28;20975;-82
2022/06/03 11:21:01;;;;;;;13.13;12.33;;;23.70;87.60;;;;;;5121599;28;20435;-81
2022/06/03 11:23:31;;;;;;;13.07;12.10;;;23.70;87.50;;;;;;5124759;28;20474;-81
2022/06/03 11:26:01;;;;;;;11.90;11.10;;;23.60;87.30;;;;;;5120481;28;20447;-81
2022/06/03 11:28:38;;;;;;;11.77;11.07;;;23.60;87.40;;;;;;5120162;28;20443;-81
2022/06/03 11:31:18;;;;;;;12.67;11.87;;;23.60;87.60;;;;;;5122162;28;20443;-80
2022/06/03 11:33:52;;;;;;;12.00;11.10;;;23.60;87.60;;;;;;5121794;28;20531;-80
2022/06/03 11:36:27;;;;;;;12.60;11.80;;;23.60;87.40;;;;;;5120310;28;20524;-80
2022/06/03 11:39:01;;;;;;;12.53;11.73;;;23.60;87.30;;;;;;5123165;28;20463;-80
2022/06/03 11:41:33;;;;;;;11.63;10.83;;;23.60;86.90;;;;;;5123368;28;20455;-81
2022/06/03 11:44:08;;;;;;;13.23;12.43;;;23.50;86.80;;;;;;5125455;28;20463;-80
2022/06/03 11:46:39;;;;;;;11.40;10.70;;;23.50;86.90;;;;;;5122825;28;20822;-80
2022/06/03 11:49:08;;;;;;;12.03;11.20;;;23.50;86.90;;;;;;5120445;28;20440;-79
2022/06/03 11:51:37;;;;;;;12.57;11.77;;;23.50;86.60;;;;;;5117627;28;20455;-79
2022/06/03 11:54:11;;;;;;;12.40;11.60;;;23.60;86.50;;;;;;5121217;28;20830;-80
2022/06/03 11:56:41;;;;;;;12.47;11.77;;;23.60;86.20;;;;;;5124270;28;20468;-80
2022/06/03 11:59:13;;;;;;;12.90;12.10;;;23.50;85.80;;;;;;5126656;28;20459;-82
2022/06/03 12:01:50;;;;;;;12.47;11.67;;;23.40;85.50;;;;;;5128897;28;20500;-81
2022/06/03 12:04:32;;;;;;;13.23;12.33;;;23.40;85.30;;;;;;5130472;28;20454;-81
2022/06/03 12:07:12;;;;;;;12.63;11.70;;;23.40;85.10;;;;;;5126541;28;20447;-80
2022/06/03 12:09:48;;;;;;;12.10;11.30;;;23.30;85.20;;;;;;5124623;28;20467;-81
2022/06/03 12:16:03;;;;;;;12.83;11.90;;;23.40;85.20;;;;;;5129974;28;20451;-82
2022/06/03 12:19:01;;;;;;;12.23;11.33;;;23.40;85.40;;;;;;5103195;28;20463;-82
2022/06/03 12:22:33;;;;;;;12.87;11.97;;;23.50;84.60;;;;;;5128151;28;20450;-82
2022/06/03 12:28:30;;;;;;;10.50;9.80;;;23.50;84.50;;;;;;5150888;27;20520;-82
2022/06/03 12:31:01;;;;;;;12.43;11.63;;;23.50;84.30;;;;;;5151851;28;20446;-82
2022/06/03 12:33:34;;;;;;;12.03;11.17;;;23.50;84.30;;;;;;5148766;27;20466;-82
2022/06/03 12:36:07;;;;;;;11.10;10.40;;;23.40;83.90;;;;;;5146178;27;20431;-83
2022/06/03 12:38:45;;;;;;;12.20;11.30;;;23.40;84.20;;;;;;5149721;28;20446;-83
2022/06/03 12:41:47;;;;;;;11.83;11.13;;;23.40;84.40;;;;;;5147666;28;20442;-83
2022/06/03 12:44:40;;;;;;;12.10;11.40;;;23.40;84.40;;;;;;5143888;27;20470;-83
2022/06/03 12:47:44;;;;;;;11.97;11.20;;;23.40;84.30;;;;;;5144668;28;20906;-83
2022/06/03 12:50:34;;;;;;;11.27;10.47;;;23.40;83.90;;;;;;5064999;28;20448;-82
2022/06/03 12:53:23;;;;;;;11.97;11.27;;;23.40;83.80;;;;;;5083216;28;20453;-84
2022/06/03 12:55:58;;;;;;;12.60;11.80;;;23.40;83.70;;;;;;5125761;28;20474;-81
2022/06/03 12:58:44;;;;;;;12.30;11.50;;;23.40;83.60;;;;;;5144166;28;20476;-84
2022/06/03 13:01:27;;;;;;;10.93;10.23;;;23.50;83.70;;;;;;5143526;28;20446;-83
2022/06/03 13:03:58;;;;;;;11.60;10.70;;;23.50;83.50;;;;;;5143527;27;20462;-83
2022/06/03 13:06:27;;;;;;;11.90;10.97;;;23.50;83.60;;;;;;5144735;28;20586;-79
2022/06/03 13:11:46;;;;;;;12.37;11.57;;;23.60;83.40;;;;;;5146230;28;20807;-84
2022/06/03 13:14:28;;;;;;;12.40;11.70;;;23.60;83.40;;;;;;5144058;27;20465;-82
2022/06/03 13:16:58;;;;;;;12.00;11.20;;;23.60;83.20;;;;;;5145423;27;20442;-82
2022/06/03 13:19:58;;;;;;;11.03;10.23;;;23.60;83.10;;;;;;5143059;28;20438;-83
2022/06/03 13:22:49;;;;;;;12.00;11.20;;;23.50;83.80;;;;;;5144743;27;20460;-85
2022/06/03 13:25:28;;;;;;;12.40;11.60;;;23.50;83.20;;;;;;5144515;28;20548;-83
2022/06/03 13:28:21;;;;;;;12.37;11.57;;;23.60;83.00;;;;;;5145211;27;20490;-82
2022/06/03 13:31:19;;;;;;;11.83;10.90;;;23.60;82.70;;;;;;5144491;28;20438;-82
2022/06/03 13:34:41;;;;;;;10.83;10.13;;;23.50;82.50;;;;;;5148023;27;20446;-82
2022/06/03 13:37:44;;;;;;;11.67;10.87;;;23.40;82.30;;;;;;5136542;28;20426;-83
2022/06/03 13:40:30;;;;;;;12.63;11.83;;;23.40;82.00;;;;;;5128026;28;20435;-82
2022/06/03 13:43:22;;;;;;;12.17;11.47;;;23.40;82.20;;;;;;5126935;28;20443;-81
2022/06/03 13:46:07;;;;;;;11.50;10.63;;;23.30;82.10;;;;;;5125990;28;20428;-83
2022/06/03 13:48:52;;;;;;;10.80;10.00;;;23.10;81.90;;;;;;5127273;28;20463;-82
2022/06/03 13:51:34;;;;;;;10.80;10.00;;;23.10;82.10;;;;;;5130514;28;20419;-83
2022/06/03 13:54:08;;;;;;;10.73;10.00;;;23.10;82.20;;;;;;5126698;28;20475;-82
2022/06/03 13:56:37;;;;;;;11.67;10.93;;;23.20;82.30;;;;;;5128535;28;20455;-82
2022/06/03 13:59:16;;;;;;;11.00;10.30;;;23.30;82.40;;;;;;5133244;27;20457;-82
2022/06/03 14:01:49;;;;;;;12.70;11.80;;;23.30;82.20;;;;;;5130329;28;20420;-84
2022/06/03 14:04:27;;;;;;;11.70;11.00;;;23.30;82.00;;;;;;5129431;28;20532;-83
2022/06/03 14:07:01;;;;;;;11.10;10.30;;;23.30;82.20;;;;;;5130442;28;20451;-83
2022/06/03 14:09:33;;;;;;;11.20;10.50;;;23.30;82.00;;;;;;5130424;28;20498;-82
2022/06/03 14:12:22;;;;;;;12.30;11.40;;;23.30;81.90;;;;;;5130769;28;20523;-85
2022/06/03 14:15:01;;;;;;;12.23;11.43;;;23.30;81.60;;;;;;5131567;28;20810;-82
2022/06/03 14:17:33;;;;;;;11.93;11.23;;;23.30;81.60;;;;;;5135708;28;20427;-83
2022/06/03 14:20:11;;;;;;;12.20;11.30;;;23.30;81.70;;;;;;5137566;28;20507;-84
2022/06/03 14:22:48;;;;;;;11.87;11.07;;;23.30;81.90;;;;;;5138325;28;20423;-82
2022/06/03 14:25:24;;;;;;;11.47;10.77;;;23.30;81.70;;;;;;5136022;28;20471;-84
2022/06/03 14:28:10;;;;;;;11.03;10.23;;;23.40;82.00;;;;;;5135485;27;20471;-85
2022/06/03 14:30:48;;;;;;;10.40;9.60;;;23.50;82.30;;;;;;5136796;28;20423;-85
2022/06/03 14:33:19;;;;;;;10.80;10.10;;;23.50;82.20;;;;;;5134815;28;20435;-83
2022/06/03 14:35:51;;;;;;;11.67;10.87;;;23.60;82.20;;;;;;5132742;27;20431;-82